createdAt,value
2023-01-30T00:02:05.753Z,37.13
2023-01-30T00:04:34.016Z,35.80
2023-01-30T00:07:03.779Z,30.83
2023-01-30T00:09:31.843Z,36.53
2023-01-30T00:11:59.929Z,34.67
2023-01-30T00:14:27.987Z,33.57
2023-01-30T00:16:56.039Z,36.07
2023-01-30T00:19:24.070Z,29.43
2023-01-30T00:21:52.216Z,33.63
2023-01-30T00:24:21.769Z,31.27
2023-01-30T00:26:50.262Z,34.58
2023-01-30T00:29:18.316Z,32.47
2023-01-30T00:31:46.439Z,29.90
2023-01-30T00:34:14.494Z,33.80
2023-01-30T00:36:42.493Z,29.60
2023-01-30T00:39:11.067Z,37.97
2023-01-30T00:41:57.701Z,35.50
2023-01-30T00:44:43.289Z,33.13
2023-01-30T00:47:11.872Z,32.73
2023-01-30T00:49:39.935Z,33.40
2023-01-30T00:52:08.026Z,31.97
2023-01-30T00:54:36.256Z,32.60
2023-01-30T00:57:05.692Z,33.80
2023-01-30T00:59:33.712Z,32.50
2023-01-30T01:02:01.852Z,27.55
2023-01-30T01:04:30.076Z,31.92
2023-01-30T01:06:58.117Z,29.87
2023-01-30T01:09:26.123Z,28.97
2023-01-30T01:11:54.111Z,28.47
2023-01-30T01:14:23.493Z,17.13
2023-01-30T01:16:51.964Z,32.73
2023-01-30T01:19:20.466Z,33.97
2023-01-30T01:21:48.592Z,31.97
2023-01-30T01:24:17.471Z,32.87
2023-01-30T01:26:45.754Z,24.37
2023-01-30T01:29:17.980Z,24.63
2023-01-30T01:31:47.719Z,31.77
2023-01-30T01:34:17.134Z,31.97
2023-01-30T01:36:54.397Z,28.07
2023-01-30T01:39:23.428Z,25.50
2023-01-30T01:41:50.851Z,27.70
2023-01-30T01:44:19.844Z,34.63
2023-01-30T01:46:52.756Z,28.63
2023-01-30T01:49:24.851Z,30.27
2023-01-30T01:51:57.567Z,30.43
2023-01-30T01:54:33.161Z,27.10
2023-01-30T01:57:04.742Z,25.40
2023-01-30T01:59:38.692Z,26.23
2023-01-30T02:02:12.440Z,29.90
2023-01-30T02:05:04.528Z,29.00
2023-01-30T02:07:38.749Z,28.50
2023-01-30T02:10:09.420Z,30.23
2023-01-30T02:12:39.179Z,27.83
2023-01-30T02:15:08.673Z,28.10
2023-01-30T02:17:38.917Z,30.53
2023-01-30T02:20:17.726Z,26.63
2023-01-30T02:23:23.510Z,31.10
2023-01-30T02:26:32.164Z,27.33
2023-01-30T02:29:34.408Z,20.85
2023-01-30T02:32:12.155Z,17.93
2023-01-30T02:34:49.752Z,27.33
2023-01-30T02:37:29.462Z,24.87
2023-01-30T02:40:18.865Z,17.10
2023-01-30T02:42:57.221Z,23.00
2023-01-30T02:45:30.374Z,19.37
2023-01-30T02:48:04.050Z,24.10
2023-01-30T02:50:37.476Z,21.23
2023-01-30T02:53:07.242Z,22.10
2023-01-30T02:55:36.340Z,20.42
2023-01-30T02:58:05.688Z,20.37
2023-01-30T03:00:49.712Z,20.73
2023-01-30T03:03:30.528Z,23.57
2023-01-30T03:06:17.739Z,19.47
2023-01-30T03:08:56.956Z,22.13
2023-01-30T03:11:36.623Z,18.33
2023-01-30T03:14:14.178Z,18.40
2023-01-30T03:16:42.882Z,16.60
2023-01-30T03:19:13.975Z,21.33
2023-01-30T03:21:44.508Z,19.03
2023-01-30T03:24:13.404Z,16.80
2023-01-30T03:26:46.810Z,16.15
2023-01-30T03:29:15.318Z,15.63
2023-01-30T03:31:43.556Z,13.40
2023-01-30T03:34:13.099Z,18.38
2023-01-30T03:36:41.242Z,16.08
2023-01-30T03:39:09.510Z,14.68
2023-01-30T03:41:37.597Z,19.45
2023-01-30T03:44:06.672Z,14.35
2023-01-30T03:46:34.671Z,13.73
2023-01-30T03:49:02.861Z,14.73
2023-01-30T03:51:32.235Z,16.67
2023-01-30T03:54:00.249Z,17.50
2023-01-30T03:56:28.288Z,14.40
2023-01-30T03:58:56.526Z,15.03
2023-01-30T04:01:34.193Z,19.30
2023-01-30T04:04:02.904Z,19.40
2023-01-30T04:06:35.773Z,19.13
2023-01-30T04:09:05.878Z,18.38
2023-01-30T04:11:40.022Z,15.80
2023-01-30T04:14:08.096Z,20.02
2023-01-30T04:16:44.632Z,20.50
2023-01-30T04:19:44.115Z,16.25
2023-01-30T04:22:13.518Z,19.80
2023-01-30T04:24:41.844Z,15.88
2023-01-30T04:27:10.180Z,20.52
2023-01-30T04:29:44.336Z,17.55
2023-01-30T04:32:12.941Z,16.48
2023-01-30T04:34:42.050Z,20.02
2023-01-30T04:37:10.122Z,17.02
2023-01-30T04:39:39.871Z,14.98
2023-01-30T04:42:09.059Z,17.60
2023-01-30T04:44:45.095Z,15.30
2023-01-30T04:47:18.282Z,15.27
2023-01-30T04:49:47.253Z,13.65
2023-01-30T04:52:16.875Z,14.30
2023-01-30T04:54:46.213Z,11.73
2023-01-30T04:57:14.259Z,14.88
2023-01-30T04:59:42.715Z,15.30
2023-01-30T05:02:14.047Z,14.33
2023-01-30T05:04:42.346Z,12.10
2023-01-30T05:07:11.706Z,11.80
2023-01-30T05:09:39.714Z,9.57
2023-01-30T05:12:09.208Z,8.63
2023-01-30T05:14:41.164Z,6.32
2023-01-30T05:17:09.382Z,12.68
2023-01-30T05:19:37.774Z,12.13
2023-01-30T05:22:05.789Z,13.10
2023-01-30T05:24:33.817Z,16.55
2023-01-30T05:27:01.861Z,15.35
2023-01-30T05:29:31.239Z,11.40
2023-01-30T05:31:59.251Z,15.60
2023-01-30T05:34:27.300Z,15.73
2023-01-30T05:36:55.864Z,14.85
2023-01-30T05:39:23.890Z,14.82
2023-01-30T05:41:52.442Z,17.55
2023-01-30T05:44:20.448Z,16.00
2023-01-30T05:46:49.853Z,14.48
2023-01-30T05:49:18.380Z,13.52
2023-01-30T05:51:46.474Z,13.55
2023-01-30T05:54:14.784Z,11.90
2023-01-30T05:56:43.154Z,10.88
2023-01-30T05:59:12.898Z,10.02
2023-01-30T06:01:40.954Z,13.10
2023-01-30T06:04:10.472Z,12.07
2023-01-30T06:06:38.579Z,12.73
2023-01-30T06:09:06.690Z,11.95
2023-01-30T06:11:34.945Z,11.65
2023-01-30T06:14:02.961Z,14.23
2023-01-30T06:16:31.134Z,14.43
2023-01-30T06:18:59.245Z,19.05
2023-01-30T06:21:28.588Z,10.20
2023-01-30T06:23:56.581Z,9.85
2023-01-30T06:26:24.663Z,12.27
2023-01-30T06:28:52.710Z,14.52
2023-01-30T06:31:21.082Z,11.75
2023-01-30T06:33:49.766Z,10.18
2023-01-30T06:36:17.796Z,7.97
2023-01-30T06:38:48.617Z,9.00
2023-01-30T06:41:16.690Z,7.97
2023-01-30T06:43:44.703Z,10.38
2023-01-30T06:46:12.924Z,7.38
2023-01-30T06:48:40.940Z,6.45
2023-01-30T06:51:09.022Z,7.32
2023-01-30T06:53:37.090Z,6.72
2023-01-30T06:56:06.744Z,9.38
2023-01-30T06:58:34.749Z,7.55
2023-01-30T07:01:03.114Z,10.35
2023-01-30T07:03:31.104Z,6.80
2023-01-30T07:05:59.101Z,8.45
2023-01-30T07:08:27.249Z,7.93
2023-01-30T07:10:55.519Z,7.00
2023-01-30T07:13:24.851Z,9.23
2023-01-30T07:15:52.859Z,6.63
2023-01-30T07:18:20.841Z,7.65
2023-01-30T07:20:49.573Z,13.38
2023-01-30T07:23:17.935Z,10.27
2023-01-30T07:25:46.000Z,8.90
2023-01-30T07:28:14.067Z,10.00
2023-01-30T07:30:43.478Z,8.95
2023-01-30T07:33:11.582Z,8.90
2023-01-30T07:35:39.986Z,8.18
2023-01-30T07:38:07.968Z,10.52
2023-01-30T07:40:36.087Z,4.85
2023-01-30T07:43:06.096Z,8.13
2023-01-30T07:45:38.288Z,7.50
2023-01-30T07:48:07.799Z,11.45
2023-01-30T07:50:35.812Z,9.32
2023-01-30T07:53:05.132Z,12.30
2023-01-30T07:55:33.506Z,11.23
2023-01-30T07:58:01.629Z,9.82
2023-01-30T08:00:29.979Z,8.02
2023-01-30T08:02:58.140Z,11.88
2023-01-30T08:05:27.781Z,8.95
2023-01-30T08:07:57.085Z,9.23
2023-01-30T08:10:25.533Z,7.95
2023-01-30T08:12:54.034Z,9.63
2023-01-30T08:15:23.139Z,8.35
2023-01-30T08:17:58.715Z,6.78
2023-01-30T08:20:28.687Z,7.70
2023-01-30T08:22:57.215Z,8.70
2023-01-30T08:25:25.370Z,12.45
2023-01-30T08:27:53.849Z,11.65
2023-01-30T08:30:23.028Z,15.50
2023-01-30T08:32:51.536Z,8.23
2023-01-30T08:35:19.567Z,13.02
2023-01-30T08:37:49.041Z,8.20
2023-01-30T08:40:17.678Z,6.15
2023-01-30T08:42:46.251Z,5.18
2023-01-30T08:45:14.354Z,7.05
2023-01-30T08:47:42.480Z,7.80
2023-01-30T08:50:11.732Z,5.97
2023-01-30T08:52:39.945Z,8.93
2023-01-30T08:55:10.375Z,7.32
2023-01-30T08:57:38.742Z,8.00
2023-01-30T09:00:08.926Z,8.27
2023-01-30T09:02:37.361Z,10.30
2023-01-30T09:05:06.444Z,12.85
2023-01-30T09:07:35.096Z,9.05
2023-01-30T09:10:03.143Z,16.08
2023-01-30T09:12:32.878Z,9.95
2023-01-30T09:15:01.212Z,12.63
2023-01-30T09:17:29.893Z,15.43
2023-01-30T09:19:58.084Z,12.63
2023-01-30T09:22:29.041Z,10.38
2023-01-30T09:24:57.156Z,12.77
2023-01-30T09:27:25.147Z,12.80
2023-01-30T09:29:54.548Z,11.30
2023-01-30T09:32:22.944Z,13.55
2023-01-30T09:34:50.990Z,19.67
2023-01-30T09:37:19.020Z,11.80
2023-01-30T09:39:47.098Z,10.85
2023-01-30T09:42:50.946Z,11.80
2023-01-30T09:45:42.588Z,10.30
2023-01-30T09:48:18.232Z,11.35
2023-01-30T09:51:10.994Z,14.60
2023-01-30T09:53:53.353Z,17.73
2023-01-30T09:56:21.581Z,10.27
2023-01-30T09:58:54.104Z,10.85
2023-01-30T10:01:34.344Z,12.10
2023-01-30T10:04:16.262Z,14.65
2023-01-30T10:06:52.816Z,12.88
2023-01-30T10:09:29.861Z,10.32
2023-01-30T10:12:15.220Z,10.25
2023-01-30T10:14:58.230Z,12.80
2023-01-30T10:17:52.074Z,11.10
2023-01-30T10:20:32.987Z,16.23
2023-01-30T10:23:14.108Z,19.83
2023-01-30T10:25:46.270Z,14.65
2023-01-30T10:28:23.588Z,11.50
2023-01-30T10:30:55.795Z,8.93
2023-01-30T10:33:31.370Z,12.50
2023-01-30T10:36:04.614Z,10.65
2023-01-30T10:38:40.921Z,12.85
2023-01-30T10:41:19.005Z,12.98
2023-01-30T10:43:54.897Z,9.02
2023-01-30T10:46:45.002Z,10.38
2023-01-30T10:49:18.573Z,9.15
2023-01-30T10:51:53.807Z,5.05
2023-01-30T10:54:27.505Z,12.93
2023-01-30T10:57:02.227Z,8.90
2023-01-30T10:59:43.156Z,6.57
2023-01-30T11:02:22.959Z,11.15
2023-01-30T11:04:59.344Z,4.80
2023-01-30T11:07:30.646Z,8.38
2023-01-30T11:10:00.194Z,12.32
2023-01-30T11:12:28.735Z,7.75
2023-01-30T11:14:59.631Z,13.73
2023-01-30T11:17:35.185Z,10.25
2023-01-30T11:20:10.858Z,7.03
2023-01-30T11:22:47.504Z,9.02
2023-01-30T11:25:18.915Z,9.45
2023-01-30T11:27:55.268Z,16.02
2023-01-30T11:30:27.615Z,7.38
2023-01-30T11:33:07.405Z,8.80
2023-01-30T11:35:43.613Z,11.38
2023-01-30T11:38:23.189Z,8.50
2023-01-30T11:40:51.213Z,12.32
2023-01-30T11:43:20.391Z,5.80
2023-01-30T11:45:50.871Z,14.63
2023-01-30T11:48:33.305Z,11.02
2023-01-30T11:51:07.014Z,14.05
2023-01-30T11:53:38.670Z,13.23
2023-01-30T11:56:13.021Z,6.72
2023-01-30T11:58:46.133Z,7.88
2023-01-30T12:01:16.118Z,10.40
2023-01-30T12:03:52.339Z,7.45
2023-01-30T12:06:29.799Z,9.93
2023-01-30T12:08:58.512Z,10.90
2023-01-30T12:11:32.609Z,6.70
2023-01-30T12:14:18.727Z,5.95
2023-01-30T12:16:58.713Z,13.30
2023-01-30T12:19:40.227Z,15.00
2023-01-30T12:22:20.198Z,10.52
2023-01-30T12:24:58.980Z,14.70
2023-01-30T12:27:38.903Z,11.25
2023-01-30T12:30:21.312Z,5.40
2023-01-30T12:32:49.544Z,13.02
2023-01-30T12:35:19.492Z,7.38
2023-01-30T12:38:00.026Z,15.43
2023-01-30T12:40:38.065Z,8.00
2023-01-30T12:43:46.266Z,5.80
2023-01-30T12:46:34.525Z,9.52
2023-01-30T12:49:18.114Z,7.38
2023-01-30T12:52:07.043Z,13.20
2023-01-30T12:54:47.784Z,11.73
2023-01-30T12:57:27.640Z,7.95
2023-01-30T13:00:06.764Z,4.18
2023-01-30T13:03:00.389Z,6.70
2023-01-30T13:05:38.880Z,9.50
2023-01-30T13:08:27.262Z,10.75
2023-01-30T13:11:06.419Z,14.68
2023-01-30T13:13:43.031Z,17.20
2023-01-30T13:16:22.875Z,15.75
2023-01-30T13:18:56.863Z,7.95
2023-01-30T13:21:32.155Z,12.80
2023-01-30T13:24:14.730Z,11.07
2023-01-30T13:26:46.348Z,8.93
2023-01-30T13:29:17.196Z,16.67
2023-01-30T13:31:53.048Z,5.30
2023-01-30T13:34:29.228Z,8.65
2023-01-30T13:37:03.862Z,6.57
2023-01-30T13:39:42.288Z,12.27
2023-01-30T13:42:21.630Z,8.23
2023-01-30T13:44:51.834Z,9.55
2023-01-30T13:47:32.724Z,9.02
2023-01-30T13:50:16.521Z,15.52
2023-01-30T13:52:48.812Z,3.72
2023-01-30T13:55:29.913Z,7.18
2023-01-30T13:58:06.936Z,13.32
2023-01-30T14:00:36.016Z,6.07
2023-01-30T14:03:32.228Z,9.35
2023-01-30T14:06:27.098Z,10.88
2023-01-30T14:08:59.312Z,8.07
2023-01-30T14:11:41.216Z,9.15
2023-01-30T14:14:27.557Z,6.68
2023-01-30T14:16:57.408Z,12.77
2023-01-30T14:19:37.053Z,11.48
2023-01-30T14:22:19.321Z,9.15
2023-01-30T14:25:41.503Z,9.60
2023-01-30T14:28:50.021Z,8.55
2023-01-30T14:31:49.762Z,10.75
2023-01-30T14:34:40.605Z,8.40
2023-01-30T14:37:30.935Z,14.90
2023-01-30T14:39:59.772Z,12.57
2023-01-30T14:42:29.866Z,14.85
2023-01-30T14:45:07.624Z,15.48
2023-01-30T14:47:47.165Z,10.40
2023-01-30T14:50:22.662Z,12.02
2023-01-30T14:52:55.454Z,11.20
2023-01-30T14:55:29.410Z,14.60
2023-01-30T14:58:02.244Z,10.63
2023-01-30T15:00:33.119Z,10.65
2023-01-30T15:03:05.644Z,14.35
2023-01-30T15:05:37.497Z,8.65
2023-01-30T15:08:09.859Z,13.23
2023-01-30T15:10:53.826Z,6.30
2023-01-30T15:13:42.775Z,9.23
2023-01-30T15:16:28.050Z,6.47
2023-01-30T15:19:10.775Z,8.70
2023-01-30T15:21:55.384Z,7.28
2023-01-30T15:24:55.794Z,13.10
2023-01-30T15:27:31.548Z,15.65
2023-01-30T15:30:22.863Z,10.60
2023-01-30T15:33:07.885Z,4.82
2023-01-30T15:35:37.765Z,9.80
2023-01-30T15:38:05.853Z,11.05
2023-01-30T15:40:34.371Z,20.05
2023-01-30T15:43:16.739Z,6.82
2023-01-30T15:45:59.869Z,7.93
2023-01-30T15:48:59.814Z,9.25
2023-01-30T15:51:31.901Z,13.85
2023-01-30T15:54:09.299Z,11.15
2023-01-30T15:56:37.715Z,13.30
2023-01-30T15:59:07.116Z,15.18
2023-01-30T16:01:35.866Z,11.93
2023-01-30T16:04:07.939Z,14.57
2023-01-30T16:06:38.437Z,9.35
2023-01-30T16:09:19.320Z,14.65
2023-01-30T16:11:48.247Z,6.43
2023-01-30T16:14:18.678Z,13.07
2023-01-30T16:16:51.112Z,11.02
2023-01-30T16:19:26.613Z,14.68
2023-01-30T16:21:59.005Z,8.27
2023-01-30T16:24:29.965Z,12.82
2023-01-30T16:27:01.346Z,11.85
2023-01-30T16:29:32.267Z,14.73
2023-01-30T16:32:00.839Z,12.43
2023-01-30T16:34:32.230Z,12.70
2023-01-30T16:37:05.970Z,11.40
2023-01-30T16:39:35.511Z,22.65
2023-01-30T16:42:05.924Z,9.77
2023-01-30T16:44:35.046Z,15.43
2023-01-30T16:47:05.060Z,9.18
2023-01-30T16:49:46.776Z,13.55
2023-01-30T16:52:23.276Z,14.52
2023-01-30T16:54:53.512Z,13.73
2023-01-30T16:57:35.808Z,11.35
2023-01-30T17:00:10.114Z,10.27
2023-01-30T17:02:41.972Z,17.50
2023-01-30T17:05:19.081Z,15.45
2023-01-30T17:07:49.844Z,14.95
2023-01-30T17:10:56.757Z,14.23
2023-01-30T17:13:36.688Z,10.30
2023-01-30T17:16:26.746Z,10.10
2023-01-30T17:18:58.023Z,19.10
2023-01-30T17:21:28.685Z,18.27
2023-01-30T17:24:00.398Z,8.32
2023-01-30T17:26:28.699Z,16.73
2023-01-30T17:28:57.363Z,10.85
2023-01-30T17:31:25.646Z,15.95
2023-01-30T17:33:54.777Z,14.35
2023-01-30T17:36:25.728Z,15.60
2023-01-30T17:38:54.511Z,17.80
2023-01-30T17:41:26.465Z,11.88
2023-01-30T17:43:54.711Z,16.63
2023-01-30T17:46:24.827Z,14.38
2023-01-30T17:48:52.838Z,15.23
2023-01-30T17:51:20.827Z,12.70
2023-01-30T17:53:48.845Z,17.40
2023-01-30T17:56:20.514Z,14.77
2023-01-30T17:58:50.658Z,17.33
2023-01-30T18:01:19.032Z,16.45
2023-01-30T18:03:47.114Z,16.25
2023-01-30T18:06:16.757Z,11.48
2023-01-30T18:08:45.309Z,12.30
2023-01-30T18:11:14.799Z,5.60
2023-01-30T18:13:46.887Z,13.75
2023-01-30T18:16:20.412Z,12.55
2023-01-30T18:18:48.827Z,8.18
2023-01-30T18:21:17.214Z,19.00
2023-01-30T18:23:45.225Z,22.63
2023-01-30T18:26:14.150Z,19.10
2023-01-30T18:28:43.827Z,25.40
2023-01-30T18:31:12.298Z,16.38
2023-01-30T18:33:44.936Z,7.95
2023-01-30T18:36:14.945Z,13.88
2023-01-30T18:38:44.334Z,16.75
2023-01-30T18:41:14.145Z,17.25
2023-01-30T18:43:42.556Z,13.10
2023-01-30T18:46:12.967Z,16.77
2023-01-30T18:48:43.296Z,11.80
2023-01-30T18:51:14.509Z,14.82
2023-01-30T18:53:43.461Z,20.23
2023-01-30T18:56:13.901Z,28.10
2023-01-30T18:58:42.592Z,9.02
2023-01-30T19:01:12.417Z,11.70
2023-01-30T19:03:41.812Z,16.73
2023-01-30T19:06:11.858Z,11.00
2023-01-30T19:08:40.034Z,15.88
2023-01-30T19:11:24.180Z,11.95
2023-01-30T19:13:52.200Z,14.20
2023-01-30T19:16:20.552Z,11.13
2023-01-30T19:18:50.569Z,13.68
2023-01-30T19:21:19.159Z,20.70
2023-01-30T19:23:47.210Z,14.75
2023-01-30T19:26:15.594Z,19.77
2023-01-30T19:28:44.708Z,22.77
2023-01-30T19:31:15.455Z,8.50
2023-01-30T19:33:44.352Z,19.67
2023-01-30T19:36:16.327Z,17.55
2023-01-30T19:38:45.657Z,13.65
2023-01-30T19:41:15.135Z,21.08
2023-01-30T19:43:43.443Z,14.43
2023-01-30T19:46:11.842Z,13.95
2023-01-30T19:48:40.625Z,14.55
2023-01-30T19:51:15.751Z,14.52
2023-01-30T19:53:45.881Z,11.07
2023-01-30T19:56:15.447Z,18.75
2023-01-30T19:58:43.947Z,15.55
2023-01-30T20:01:14.169Z,17.67
2023-01-30T20:03:43.383Z,21.27
2023-01-30T20:06:15.000Z,18.73
2023-01-30T20:08:44.355Z,16.17
2023-01-30T20:11:13.770Z,15.23
2023-01-30T20:13:43.663Z,14.40
2023-01-30T20:16:14.737Z,11.68
2023-01-30T20:18:43.022Z,11.40
2023-01-30T20:21:12.940Z,17.55
2023-01-30T20:23:42.446Z,10.32
2023-01-30T20:26:12.891Z,9.43
2023-01-30T20:28:41.433Z,11.55
2023-01-30T20:31:12.000Z,12.88
2023-01-30T20:33:40.527Z,9.48
2023-01-30T20:36:11.531Z,22.08
2023-01-30T20:38:43.345Z,10.32
2023-01-30T20:41:14.756Z,11.27
2023-01-30T20:43:45.194Z,8.73
2023-01-30T20:46:15.248Z,14.50
2023-01-30T20:48:44.008Z,14.63
2023-01-30T20:51:15.297Z,16.95
2023-01-30T20:53:49.847Z,22.58
2023-01-30T20:56:18.754Z,16.85
2023-01-30T20:58:47.161Z,16.38
2023-01-30T21:01:18.227Z,8.10
2023-01-30T21:03:49.402Z,17.50
2023-01-30T21:06:41.349Z,9.50
2023-01-30T21:09:11.081Z,16.02
2023-01-30T21:11:40.644Z,12.40
2023-01-30T21:14:08.794Z,12.00
2023-01-30T21:16:37.375Z,19.80
2023-01-30T21:19:07.998Z,13.77
2023-01-30T21:21:38.369Z,16.45
2023-01-30T21:24:12.925Z,11.40
2023-01-30T21:26:44.511Z,16.27
2023-01-30T21:29:14.606Z,10.25
2023-01-30T21:31:44.232Z,12.55
2023-01-30T21:34:12.872Z,10.43
2023-01-30T21:36:41.142Z,11.68
2023-01-30T21:39:30.830Z,14.70
2023-01-30T21:42:16.288Z,11.77
2023-01-30T21:44:44.277Z,5.63
2023-01-30T21:47:12.540Z,15.45
2023-01-30T21:49:41.570Z,17.25
2023-01-30T21:52:09.607Z,10.68
2023-01-30T21:54:39.112Z,13.27
2023-01-30T21:57:07.136Z,9.18
2023-01-30T21:59:35.193Z,9.85
2023-01-30T22:02:03.184Z,12.45
2023-01-30T22:04:31.360Z,8.68
2023-01-30T22:06:59.504Z,14.70
2023-01-30T22:09:27.538Z,20.27
2023-01-30T22:11:57.037Z,12.48
2023-01-30T22:14:25.033Z,7.18
2023-01-30T22:16:53.325Z,15.80
2023-01-30T22:19:21.376Z,13.40
2023-01-30T22:21:49.694Z,16.08
2023-01-30T22:24:17.959Z,10.13
2023-01-30T22:26:46.041Z,24.25
2023-01-30T22:29:17.957Z,18.80
2023-01-30T22:31:45.992Z,18.27
2023-01-30T22:34:13.991Z,10.75
2023-01-30T22:36:42.036Z,12.05
2023-01-30T22:39:10.134Z,21.55
2023-01-30T22:41:38.662Z,19.83
2023-01-30T22:44:10.071Z,13.35
2023-01-30T22:46:41.508Z,15.13
2023-01-30T22:49:10.612Z,11.07
2023-01-30T22:51:41.015Z,16.30
2023-01-30T22:54:11.817Z,14.23
2023-01-30T22:56:41.619Z,16.77
2023-01-30T22:59:09.993Z,15.98
2023-01-30T23:01:41.645Z,20.55
2023-01-30T23:04:13.230Z,12.20
2023-01-30T23:06:41.703Z,16.25
2023-01-30T23:09:12.541Z,10.75
2023-01-30T23:11:43.368Z,10.90
2023-01-30T23:14:14.243Z,19.95
2023-01-30T23:16:46.042Z,15.13
2023-01-30T23:19:13.694Z,14.70
2023-01-30T23:21:44.289Z,21.65
2023-01-30T23:24:14.641Z,16.13
2023-01-30T23:26:44.814Z,9.80
2023-01-30T23:29:15.462Z,20.73
2023-01-30T23:31:46.625Z,16.77
2023-01-30T23:34:16.617Z,23.40
2023-01-30T23:36:45.071Z,10.63
2023-01-30T23:39:14.520Z,16.30
2023-01-30T23:41:44.134Z,15.10
2023-01-30T23:44:12.369Z,19.48
2023-01-30T23:46:42.050Z,12.27
2023-01-30T23:49:13.205Z,7.35
2023-01-30T23:51:43.087Z,13.23
2023-01-30T23:54:12.109Z,10.70
2023-01-30T23:56:42.238Z,11.48
2023-01-30T23:59:11.000Z,10.00
